Time;durP1;ratioP1;P1;durP2;ratioP2;P2;SDS_P1;SDS_P2;PMS_P1;PMS_P2;Temp;Humidity;BMP_temperature;BMP_pressure;BME280_temperature;BME280_humidity;BME280_pressure;Samples;Min_cycle;Max_cycle;Signal;HPM_P1;HPM_P2
2023/06/02 00:00:26;;;;;;;;;10.75;9.00;;;;;19.56;48.44;101311.91;2086587;28;46864;-62
2023/06/02 00:01:31;;;;;;;;;10.25;8.00;;;;;19.51;48.27;101325.56;2087368;28;46223;-62
2023/06/02 00:02:33;;;;;;;;;8.80;8.80;;;;;19.48;48.26;101319.47;2087048;28;47156;-62
2023/06/02 00:03:36;;;;;;;;;9.00;7.20;;;;;19.45;48.68;101325.03;2086768;28;45574;-60
2023/06/02 00:04:37;;;;;;;;;9.00;9.00;;;;;19.44;48.71;101325.94;2088167;28;45098;-61
2023/06/02 00:05:40;;;;;;;;;9.25;8.50;;;;;19.43;48.77;101322.38;2087045;28;46693;-57
2023/06/02 00:06:41;;;;;;;;;9.60;8.60;;;;;19.41;48.50;101335.91;2088179;28;45999;-62
2023/06/02 00:07:41;;;;;;;;;7.75;7.75;;;;;19.40;49.17;101327.91;2096500;28;45269;-61
2023/06/02 00:08:42;;;;;;;;;11.00;9.00;;;;;19.39;48.70;101326.16;2089830;28;46402;-62
2023/06/02 00:09:43;;;;;;;;;10.75;10.25;;;;;19.38;48.64;101328.00;2086853;28;46717;-62
2023/06/02 00:10:43;;;;;;;;;10.00;8.33;;;;;19.36;48.92;101327.19;2086734;28;45543;-61
2023/06/02 00:11:43;;;;;;;;;9.25;9.25;;;;;19.37;49.18;101330.75;2088224;28;46888;-61
2023/06/02 00:12:44;;;;;;;;;10.25;7.25;;;;;19.35;48.73;101325.47;2088510;28;45905;-62
2023/06/02 00:13:44;;;;;;;;;13.50;11.00;;;;;19.34;49.36;101326.41;2086400;28;45206;-61
2023/06/02 00:14:48;;;;;;;;;8.25;7.50;;;;;19.33;49.07;101326.47;2086097;28;45097;-62
2023/06/02 00:15:48;;;;;;;;;12.60;9.80;;;;;19.32;49.30;101333.69;2081713;28;46738;-61
2023/06/02 00:16:48;;;;;;;;;11.00;10.00;;;;;19.31;48.98;101321.19;2095557;28;46289;-63
2023/06/02 00:17:49;;;;;;;;;12.75;10.50;;;;;19.30;49.70;101323.91;2096048;28;45895;-63
2023/06/02 00:18:52;;;;;;;;;11.00;10.00;;;;;19.28;48.99;101315.91;2088502;28;46662;-61
2023/06/02 00:19:56;;;;;;;;;11.80;9.20;;;;;19.28;49.35;101332.06;2087653;28;46196;-63
2023/06/02 00:20:58;;;;;;;;;11.40;9.80;;;;;19.24;49.21;101327.78;2088140;28;47040;-62
2023/06/02 00:22:01;;;;;;;;;9.00;8.75;;;;;19.24;49.74;101321.53;2086372;28;46042;-60
2023/06/02 00:23:02;;;;;;;;;9.40;9.00;;;;;19.23;49.31;101322.47;2087287;28;45500;-62
2023/06/02 00:24:02;;;;;;;;;9.50;7.00;;;;;19.22;48.98;101324.31;2088273;28;45803;-61
2023/06/02 00:25:06;;;;;;;;;10.50;10.50;;;;;19.21;49.43;101321.69;2085236;28;46853;-62
2023/06/02 00:26:06;;;;;;;;;12.80;11.40;;;;;19.19;49.62;101327.16;2086980;28;46675;-61
2023/06/02 00:27:09;;;;;;;;;13.75;13.00;;;;;19.18;49.38;101321.81;2088008;28;45577;-62
2023/06/02 00:28:10;;;;;;;;;8.60;8.40;;;;;19.19;49.79;101323.59;2087118;28;45700;-64
2023/06/02 00:29:10;;;;;;;;;14.25;11.75;;;;;19.16;49.75;101326.41;2088026;28;45257;-60
2023/06/02 00:30:12;;;;;;;;;10.50;10.50;;;;;19.15;49.46;101321.97;2087164;28;44945;-61
2023/06/02 00:31:12;;;;;;;;;12.60;11.60;;;;;19.13;49.98;101331.94;2086761;28;46573;-61
2023/06/02 00:32:12;;;;;;;;;9.75;9.00;;;;;19.10;49.63;101327.56;2088399;28;45823;-61
2023/06/02 00:33:13;;;;;;;;;9.50;8.00;;;;;19.08;49.62;101324.97;2087702;28;46316;-61
2023/06/02 00:34:14;;;;;;;;;10.00;10.00;;;;;19.08;49.46;101327.66;2088397;28;45378;-60
2023/06/02 00:35:14;;;;;;;;;10.00;8.50;;;;;19.08;49.57;101327.66;2086893;28;46878;-61
2023/06/02 00:36:14;;;;;;;;;7.00;7.00;;;;;19.08;49.83;101326.78;2085398;28;47128;-61
2023/06/02 00:37:15;;;;;;;;;10.00;8.50;;;;;19.07;49.69;101327.72;2088719;28;45028;-61
2023/06/02 00:38:15;;;;;;;;;12.75;10.25;;;;;19.08;49.57;101330.34;2088641;28;45473;-59
2023/06/02 00:39:16;;;;;;;;;9.25;9.25;;;;;19.07;49.65;101335.81;2088485;28;45764;-62
2023/06/02 00:40:16;;;;;;;;;13.50;11.25;;;;;19.03;49.67;101321.59;2087531;28;46044;-62
2023/06/02 00:41:16;;;;;;;;;9.00;8.75;;;;;19.02;49.43;101330.63;2088452;28;47956;-59
2023/06/02 00:42:18;;;;;;;;;9.75;9.75;;;;;19.01;50.06;101328.00;2087768;28;45728;-62
2023/06/02 00:43:18;;;;;;;;;12.40;12.40;;;;;19.00;49.94;101321.75;2083280;28;45759;-60
2023/06/02 00:44:18;;;;;;;;;9.00;9.00;;;;;18.99;50.35;101330.78;2087530;28;46089;-60
2023/06/02 00:45:19;;;;;;;;;13.00;12.00;;;;;18.98;49.79;101329.03;2088158;28;45578;-59
2023/06/02 00:46:19;;;;;;;;;9.25;8.00;;;;;18.98;49.71;101320.09;2087567;28;45417;-61
2023/06/02 00:47:19;;;;;;;;;11.75;9.50;;;;;18.96;49.81;101327.34;2086499;28;46065;-62
2023/06/02 00:48:20;;;;;;;;;11.50;9.50;;;;;18.95;49.96;101331.88;2078908;28;45122;-61
2023/06/02 00:49:20;;;;;;;;;12.25;11.00;;;;;18.94;50.06;101322.06;2087314;28;46819;-63
2023/06/02 00:50:22;;;;;;;;;12.25;11.00;;;;;18.93;49.96;101331.06;2087231;28;47114;-61
2023/06/02 00:51:22;;;;;;;;;13.20;11.60;;;;;18.89;49.80;101325.88;2088715;28;46666;-62
2023/06/02 00:52:23;;;;;;;;;11.50;11.00;;;;;18.87;50.07;101330.47;2089397;28;46452;-61
2023/06/02 00:53:24;;;;;;;;;11.75;10.00;;;;;18.84;50.05;101330.63;2088354;28;46074;-61
2023/06/02 00:54:26;;;;;;;;;13.50;13.25;;;;;18.81;50.01;101327.13;2087832;28;45466;-62
2023/06/02 00:55:30;;;;;;;;;12.80;12.20;;;;;18.80;50.20;101319.09;2088108;28;46307;-61
2023/06/02 00:56:31;;;;;;;;;11.80;10.20;;;;;18.80;50.05;101328.06;2087925;28;47045;-62
2023/06/02 00:57:34;;;;;;;;;14.00;12.60;;;;;18.79;50.28;101323.63;2087358;28;46603;-61
2023/06/02 00:58:37;;;;;;;;;11.40;11.40;;;;;18.80;50.46;101328.06;2088045;28;45622;-62
2023/06/02 00:59:38;;;;;;;;;12.20;11.20;;;;;18.80;50.32;101335.25;2086421;28;46522;-61
2023/06/02 01:00:40;;;;;;;;;10.00;10.00;;;;;18.81;50.12;101331.63;2082795;28;45561;-61
2023/06/02 01:01:41;;;;;;;;;10.20;10.20;;;;;18.78;49.90;101332.63;2087835;28;47996;-61
2023/06/02 01:02:42;;;;;;;;;15.25;14.25;;;;;18.77;50.15;101338.06;2091662;28;45224;-60
2023/06/02 01:03:43;;;;;;;;;14.25;11.25;;;;;18.76;50.45;101336.34;2087553;28;46990;-61
2023/06/02 01:04:46;;;;;;;;;12.40;12.40;;;;;18.75;50.47;101330.09;2087411;28;46971;-61
2023/06/02 01:05:51;;;;;;;;;14.00;13.00;;;;;18.75;50.46;101332.78;2082005;28;46055;-62
2023/06/02 01:06:52;;;;;;;;;12.20;11.20;;;;;18.74;50.32;101335.53;2089177;28;46238;-61
2023/06/02 01:07:58;;;;;;;;;16.00;15.25;;;;;18.74;50.50;101336.41;2087318;28;45926;-62
2023/06/02 01:09:01;;;;;;;;;13.40;11.20;;;;;18.73;50.51;101331.97;2084315;28;46832;-61
2023/06/02 01:10:03;;;;;;;;;12.80;11.00;;;;;18.73;50.59;101329.28;2088141;28;45522;-62
2023/06/02 01:11:04;;;;;;;;;16.40;14.60;;;;;18.75;50.34;101331.91;2086779;28;46203;-61
2023/06/02 01:12:06;;;;;;;;;13.40;13.40;;;;;18.75;50.48;101331.91;2088158;28;45727;-61
2023/06/02 01:13:06;;;;;;;;;12.40;10.60;;;;;18.75;50.31;101334.59;2087805;28;47850;-60
2023/06/02 01:14:09;;;;;;;;;10.50;10.00;;;;;18.75;50.33;101337.28;2088196;28;45701;-61
2023/06/02 01:15:09;;;;;;;;;13.20;11.00;;;;;18.74;50.51;101332.84;2088164;28;45839;-62
2023/06/02 01:16:13;;;;;;;;;13.00;13.00;;;;;18.73;50.02;101331.09;2087905;28;46623;-63
2023/06/02 01:17:15;;;;;;;;;14.20;14.00;;;;;18.72;50.30;101334.75;2087823;28;46457;-61
2023/06/02 01:18:16;;;;;;;;;12.40;12.20;;;;;18.70;50.04;101332.13;2087827;28;46513;-60
2023/06/02 01:19:21;;;;;;;;;14.40;13.80;;;;;18.70;50.31;101326.75;2087888;28;46370;-62
2023/06/02 01:20:23;;;;;;;;;12.80;12.80;;;;;18.71;50.27;101328.50;2087871;28;45797;-63
2023/06/02 01:21:28;;;;;;;;;14.20;14.00;;;;;18.70;50.22;101329.44;2087359;28;46913;-62
2023/06/02 01:22:34;;;;;;;;;13.60;13.60;;;;;18.69;50.14;101321.44;2088791;28;46915;-64
2023/06/02 01:23:36;;;;;;;;;15.00;13.60;;;;;18.68;50.44;101325.06;2089098;28;46950;-61
2023/06/02 01:24:39;;;;;;;;;10.60;10.60;;;;;18.65;50.59;101323.38;2096904;28;45679;-62
2023/06/02 01:25:39;;;;;;;;;12.40;12.00;;;;;18.63;50.42;101325.22;2096466;28;45980;-62
2023/06/02 01:26:40;;;;;;;;;13.75;13.00;;;;;18.60;50.26;101325.38;2087208;28;46425;-62
2023/06/02 01:27:40;;;;;;;;;12.75;12.75;;;;;18.59;50.50;101329.00;2088019;28;46016;-60
2023/06/02 01:28:41;;;;;;;;;14.50;11.25;;;;;18.55;50.58;101330.09;2088304;28;45723;-60
2023/06/02 01:29:43;;;;;;;;;13.75;12.75;;;;;18.53;50.81;101321.22;2089380;28;45774;-61
2023/06/02 01:30:43;;;;;;;;;12.60;11.80;;;;;18.50;50.69;101322.22;2089731;28;45838;-61
2023/06/02 01:31:48;;;;;;;;;14.25;14.25;;;;;18.49;50.97;101325.84;2088116;28;46390;-61
2023/06/02 01:33:05;;;;;;;;;13.60;13.60;;;;;18.49;50.81;101323.16;2086523;28;45549;-59
2023/06/02 01:34:13;;;;;;;;;5.40;5.20;;;;;18.47;50.83;101325.06;2088977;28;46052;-61
2023/06/02 01:35:17;;;;;;;;;12.00;11.00;;;;;18.45;50.92;101320.69;2089154;28;46728;-61
2023/06/02 01:36:21;;;;;;;;;11.40;11.40;;;;;18.44;51.01;101319.84;2085654;28;47087;-62
2023/06/02 01:37:24;;;;;;;;;17.00;14.00;;;;;18.44;50.97;101321.66;2088591;28;46814;-62
2023/06/02 01:38:28;;;;;;;;;14.60;14.60;;;;;18.43;50.83;101325.28;2088965;28;45991;-62
2023/06/02 01:39:30;;;;;;;;;13.00;12.40;;;;;18.42;51.42;101320.81;2089179;28;46990;-60
2023/06/02 01:40:30;;;;;;;;;15.40;14.60;;;;;18.39;50.87;101327.19;2088871;28;46195;-61
2023/06/02 01:41:34;;;;;;;;;16.50;15.25;;;;;18.38;50.92;101322.78;2088336;28;47702;-61
2023/06/02 01:42:34;;;;;;;;;13.80;13.80;;;;;18.35;51.51;101320.22;2088593;28;47105;-62
2023/06/02 01:43:36;;;;;;;;;13.75;13.75;;;;;18.36;50.92;101323.78;2084507;28;46249;-61
2023/06/02 01:44:37;;;;;;;;;15.20;13.40;;;;;18.35;51.26;101330.09;2087929;28;45922;-60
2023/06/02 01:45:41;;;;;;;;;12.80;12.80;;;;;18.35;51.21;101325.59;2088440;28;46030;-60
2023/06/02 01:46:44;;;;;;;;;14.60;14.60;;;;;18.35;51.03;101327.41;2088561;28;45740;-61
2023/06/02 01:47:45;;;;;;;;;16.00;14.80;;;;;18.34;51.16;101331.91;2087982;28;45794;-61
2023/06/02 01:48:45;;;;;;;;;14.75;14.75;;;;;18.34;50.85;101331.91;2090224;28;46460;-60
2023/06/02 01:49:45;;;;;;;;;16.00;15.00;;;;;18.35;51.19;101333.66;2074014;28;45852;-61
2023/06/02 01:50:46;;;;;;;;;15.50;14.75;;;;;18.35;51.03;101336.34;2078556;28;45866;-61
2023/06/02 01:51:46;;;;;;;;;16.75;16.00;;;;;18.35;50.63;101319.34;2084389;28;47048;-61
2023/06/02 01:52:46;;;;;;;;;18.25;16.50;;;;;18.35;50.87;101327.41;2088658;28;45423;-60
2023/06/02 01:53:47;;;;;;;;;16.75;15.50;;;;;18.34;50.91;101325.69;2088150;28;47845;-62
2023/06/02 01:54:48;;;;;;;;;19.00;17.00;;;;;18.32;50.73;101330.25;2088187;28;45463;-63
2023/06/02 01:55:49;;;;;;;;;17.80;15.20;;;;;18.31;50.97;101328.50;2087926;28;46433;-59
2023/06/02 01:56:49;;;;;;;;;13.00;13.00;;;;;18.28;51.29;101324.13;2088197;28;45699;-61
2023/06/02 01:57:50;;;;;;;;;15.25;13.50;;;;;18.26;51.00;101323.31;2088600;28;45631;-61
2023/06/02 01:58:52;;;;;;;;;16.20;16.20;;;;;18.23;50.98;101324.31;2087299;28;46570;-61
2023/06/02 01:59:53;;;;;;;;;18.80;16.40;;;;;18.23;51.06;101324.31;2088314;28;45982;-61
2023/06/02 02:00:54;;;;;;;;;14.50;14.00;;;;;18.22;51.18;101327.97;2092181;28;45495;-59
2023/06/02 02:01:54;;;;;;;;;14.60;13.80;;;;;18.22;51.03;101319.91;2094414;28;45588;-61
2023/06/02 02:02:57;;;;;;;;;18.50;16.50;;;;;18.21;50.81;101319.97;2080013;28;45505;-62
2023/06/02 02:03:58;;;;;;;;;14.80;14.80;;;;;18.20;51.06;101320.91;2080088;28;45855;-62
2023/06/02 02:04:58;;;;;;;;;16.75;15.50;;;;;18.19;50.93;101329.91;2087701;28;45435;-61
2023/06/02 02:05:59;;;;;;;;;10.75;9.50;;;;;18.17;51.27;101326.44;2087835;28;46264;-61
2023/06/02 02:07:01;;;;;;;;;16.20;15.60;;;;;18.16;51.27;101324.66;2088368;28;45589;-61
2023/06/02 02:08:01;;;;;;;;;17.20;16.80;;;;;18.15;51.18;101323.78;2088344;28;45759;-62
2023/06/02 02:09:03;;;;;;;;;17.75;16.75;;;;;18.15;51.08;101314.84;2071128;28;46190;-62
2023/06/02 02:10:04;;;;;;;;;14.40;14.40;;;;;18.15;51.10;101326.47;2071898;28;45521;-61
2023/06/02 02:11:04;;;;;;;;;16.50;16.50;;;;;18.14;51.28;101324.72;2087641;28;46309;-60
2023/06/02 02:12:05;;;;;;;;;10.50;10.50;;;;;18.14;51.16;101327.41;2087999;28;46318;-61
2023/06/02 02:13:05;;;;;;;;;14.75;12.75;;;;;18.14;51.34;101332.78;2087835;28;45525;-62
2023/06/02 02:14:06;;;;;;;;;16.50;16.25;;;;;18.14;51.43;101335.47;2088149;28;45871;-60
2023/06/02 02:15:07;;;;;;;;;16.50;16.50;;;;;18.15;51.36;101336.34;2087586;28;45983;-59
2023/06/02 02:16:07;;;;;;;;;17.00;16.40;;;;;18.13;51.37;101330.16;2087868;28;46010;-62
2023/06/02 02:17:09;;;;;;;;;17.00;15.00;;;;;18.10;50.69;101325.81;2088722;28;46265;-62
2023/06/02 02:18:10;;;;;;;;;16.20;16.20;;;;;18.08;51.03;101332.19;2088416;28;45883;-61
2023/06/02 02:19:14;;;;;;;;;16.00;16.00;;;;;18.05;51.17;101333.19;2088833;28;45556;-61
2023/06/02 02:20:18;;;;;;;;;16.60;16.20;;;;;18.03;51.10;101334.19;2086767;28;46066;-60
2023/06/02 02:21:19;;;;;;;;;20.00;17.40;;;;;18.01;51.26;101328.88;2083508;28;45716;-60
2023/06/02 02:22:19;;;;;;;;;16.25;16.25;;;;;17.99;51.43;101333.44;2088826;28;45542;-62
2023/06/02 02:23:20;;;;;;;;;15.75;15.75;;;;;18.00;51.42;101335.19;2088253;28;45666;-60
2023/06/02 02:24:20;;;;;;;;;17.75;15.75;;;;;17.99;51.31;101340.63;2088768;28;46009;-62
2023/06/02 02:25:20;;;;;;;;;20.50;17.00;;;;;17.98;51.07;101330.81;2081043;28;45467;-61
2023/06/02 02:26:21;;;;;;;;;17.75;15.00;;;;;17.97;51.61;101327.28;2086431;28;45963;-59
2023/06/02 02:27:22;;;;;;;;;17.50;16.50;;;;;17.97;51.37;101329.09;2088580;28;46912;-60
2023/06/02 02:28:22;;;;;;;;;16.20;16.20;;;;;17.96;51.41;101338.09;2088547;28;45677;-61
2023/06/02 02:29:23;;;;;;;;;14.50;14.00;;;;;17.93;51.34;101331.03;2088345;28;45012;-61
2023/06/02 02:30:23;;;;;;;;;19.50;16.75;;;;;17.93;51.33;101333.72;2088220;28;46093;-61
2023/06/02 02:31:24;;;;;;;;;18.25;18.25;;;;;17.91;50.92;101333.78;2088849;28;45498;-61
2023/06/02 02:32:26;;;;;;;;;16.75;15.50;;;;;17.91;51.52;101332.88;2089513;28;46276;-62
2023/06/02 02:33:26;;;;;;;;;19.00;17.60;;;;;17.90;51.77;101328.44;2087150;28;46603;-60
2023/06/02 02:34:28;;;;;;;;;16.75;16.50;;;;;17.87;51.40;101329.47;2088918;28;46110;-61
2023/06/02 02:35:29;;;;;;;;;15.60;15.60;;;;;17.87;51.32;101329.47;2088435;28;46055;-62
2023/06/02 02:36:29;;;;;;;;;15.00;15.00;;;;;17.85;51.29;101330.47;2088873;28;45691;-62
2023/06/02 02:37:29;;;;;;;;;17.50;17.00;;;;;17.83;51.60;101325.16;2088620;28;46353;-62
2023/06/02 02:38:30;;;;;;;;;15.00;15.00;;;;;17.82;51.60;101327.91;2089088;28;45124;-61
2023/06/02 02:39:30;;;;;;;;;20.00;18.50;;;;;17.80;51.48;101332.50;2088597;28;46101;-61
2023/06/02 02:40:30;;;;;;;;;17.00;17.00;;;;;17.77;51.64;101338.84;2079384;28;45752;-61
2023/06/02 02:41:31;;;;;;;;;21.50;19.00;;;;;17.75;51.59;101335.34;2078220;28;45631;-61
2023/06/02 02:42:34;;;;;;;;;18.75;17.75;;;;;17.73;51.75;101331.84;2090690;28;45563;-61
2023/06/02 02:43:35;;;;;;;;;16.20;15.40;;;;;17.71;51.60;101333.72;2088655;28;45506;-60
2023/06/02 02:44:35;;;;;;;;;16.00;14.50;;;;;17.69;51.68;101337.44;2088691;28;46557;-63
2023/06/02 02:45:36;;;;;;;;;14.75;14.75;;;;;17.66;51.71;101335.72;2088866;28;46235;-61
2023/06/02 02:46:36;;;;;;;;;17.80;15.00;;;;;17.64;51.71;101335.75;2088757;28;45627;-61
2023/06/02 02:47:37;;;;;;;;;16.50;16.50;;;;;17.62;51.65;101339.44;2088294;28;46274;-62
2023/06/02 02:48:37;;;;;;;;;19.00;19.00;;;;;17.60;51.86;101339.50;2087956;28;46109;-61
2023/06/02 02:49:37;;;;;;;;;18.00;17.25;;;;;17.59;52.01;101340.44;2087330;28;47605;-62
2023/06/02 02:50:38;;;;;;;;;15.25;13.75;;;;;17.58;51.89;101344.06;2086383;28;45297;-60
2023/06/02 02:51:38;;;;;;;;;17.25;16.25;;;;;17.59;52.01;101344.94;2087846;28;46446;-62
2023/06/02 02:52:38;;;;;;;;;18.25;17.00;;;;;17.57;52.05;101341.44;2090258;28;45721;-62
2023/06/02 02:53:39;;;;;;;;;15.00;15.00;;;;;17.54;52.05;101338.91;2089162;28;46018;-61
2023/06/02 02:54:39;;;;;;;;;17.75;17.50;;;;;17.52;52.38;101333.56;2088761;28;45547;-61
2023/06/02 02:55:40;;;;;;;;;19.00;17.75;;;;;17.51;52.00;101341.69;2088312;28;45666;-61
2023/06/02 02:56:41;;;;;;;;;16.00;15.25;;;;;17.47;52.12;101337.38;2088810;28;46077;-61
2023/06/02 02:57:41;;;;;;;;;18.50;18.00;;;;;17.46;52.21;101332.97;2081572;28;46416;-61
2023/06/02 02:58:41;;;;;;;;;17.00;15.50;;;;;17.46;52.30;101341.00;2102948;28;45833;-61
2023/06/02 02:59:42;;;;;;;;;16.75;16.25;;;;;17.46;52.10;101332.97;2105013;28;46476;-61
2023/06/02 03:00:42;;;;;;;;;21.50;19.50;;;;;17.44;52.03;101338.38;2088219;28;45537;-60
2023/06/02 03:01:46;;;;;;;;;17.00;15.50;;;;;17.44;52.31;101338.38;2088216;28;46507;-60
2023/06/02 03:02:47;;;;;;;;;19.40;18.00;;;;;17.43;52.17;101338.47;2081276;28;45871;-61
2023/06/02 03:03:47;;;;;;;;;19.20;19.20;;;;;17.43;51.92;101343.81;2083882;28;46595;-61
2023/06/02 03:04:51;;;;;;;;;17.75;16.00;;;;;17.41;52.08;101348.38;2087693;28;45959;-60
2023/06/02 03:05:54;;;;;;;;;18.60;17.00;;;;;17.42;52.22;101347.44;2096069;28;45318;-61
2023/06/02 03:06:55;;;;;;;;;20.80;17.00;;;;;17.40;52.02;101344.78;2096606;28;45697;-61
2023/06/02 03:07:56;;;;;;;;;16.75;16.75;;;;;17.40;52.18;101351.97;2088962;28;46310;-61
2023/06/02 03:09:00;;;;;;;;;21.20;19.60;;;;;17.37;52.10;101347.59;2082358;28;47240;-61
2023/06/02 03:10:00;;;;;;;;;21.60;18.20;;;;;17.37;52.13;101352.97;2088469;28;45706;-61
2023/06/02 03:11:01;;;;;;;;;20.25;18.75;;;;;17.34;52.27;101343.25;2088776;28;45243;-61
2023/06/02 03:12:01;;;;;;;;;16.75;15.25;;;;;17.33;52.00;101348.66;2088024;28;47401;-61
2023/06/02 03:13:01;;;;;;;;;16.50;16.50;;;;;17.31;52.09;101351.41;2089033;28;46045;-61
2023/06/02 03:14:02;;;;;;;;;20.50;19.50;;;;;17.30;52.08;101346.13;2088945;28;45394;-62
2023/06/02 03:15:03;;;;;;;;;19.00;19.00;;;;;17.28;52.55;101348.88;2084149;28;46989;-62
2023/06/02 03:16:03;;;;;;;;;17.75;16.50;;;;;17.27;52.35;101348.91;2088132;28;45469;-60
2023/06/02 03:17:05;;;;;;;;;22.75;20.50;;;;;17.27;52.33;101347.09;2088867;28;45705;-60
2023/06/02 03:18:05;;;;;;;;;18.80;16.00;;;;;17.25;52.36;101350.78;2088272;28;46019;-62
2023/06/02 03:19:07;;;;;;;;;17.00;16.50;;;;;17.24;52.39;101349.91;2087758;28;45733;-61
2023/06/02 03:20:08;;;;;;;;;21.00;19.60;;;;;17.24;52.22;101355.25;2086614;28;45991;-61
2023/06/02 03:21:09;;;;;;;;;20.20;18.00;;;;;17.25;52.31;101348.09;2095390;28;46259;-61
2023/06/02 03:22:10;;;;;;;;;19.50;17.25;;;;;17.23;52.46;101353.53;2095386;28;45759;-61
2023/06/02 03:23:10;;;;;;;;;18.50;17.25;;;;;17.23;52.49;101352.66;2088332;28;45001;-61
2023/06/02 03:24:12;;;;;;;;;17.25;17.25;;;;;17.23;52.48;101347.28;2088858;28;45780;-62
2023/06/02 03:25:12;;;;;;;;;17.80;17.20;;;;;17.23;52.22;101341.91;2087896;28;45648;-61
2023/06/02 03:26:13;;;;;;;;;19.00;18.75;;;;;17.22;52.63;101349.09;2087729;28;45609;-61
2023/06/02 03:27:13;;;;;;;;;18.00;16.75;;;;;17.22;52.74;101349.09;2088718;28;46280;-62
2023/06/02 03:28:13;;;;;;;;;20.50;19.25;;;;;17.21;52.67;101346.47;2088365;28;46234;-61
2023/06/02 03:29:14;;;;;;;;;21.75;18.50;;;;;17.19;52.32;101351.91;2087661;28;47008;-61
2023/06/02 03:30:16;;;;;;;;;16.00;16.00;;;;;17.18;52.28;101351.97;2088697;28;45938;-60
2023/06/02 03:31:16;;;;;;;;;17.80;15.80;;;;;17.16;52.47;101346.66;2088871;28;47586;-63
2023/06/02 03:32:16;;;;;;;;;16.50;14.50;;;;;17.16;52.27;101346.66;2087611;28;45543;-62
2023/06/02 03:33:17;;;;;;;;;19.75;19.00;;;;;17.15;52.51;101344.91;2088017;28;45972;-60
2023/06/02 03:34:17;;;;;;;;;18.25;17.00;;;;;17.16;52.85;101345.78;2088431;28;46518;-61
2023/06/02 03:35:18;;;;;;;;;17.50;16.25;;;;;17.17;52.67;101350.22;2090012;28;46483;-61
2023/06/02 03:36:19;;;;;;;;;19.25;18.25;;;;;17.18;52.33;101350.16;2093097;28;46635;-61
2023/06/02 03:37:19;;;;;;;;;19.20;18.60;;;;;17.17;52.45;101350.22;2088605;28;46062;-59
2023/06/02 03:38:20;;;;;;;;;19.25;19.25;;;;;17.16;52.36;101351.16;2088230;28;46596;-60
2023/06/02 03:39:20;;;;;;;;;21.50;19.75;;;;;17.15;52.59;101350.28;2088368;28;45770;-62
2023/06/02 03:40:20;;;;;;;;;16.25;15.00;;;;;17.13;52.35;101351.25;2088688;28;45901;-61
2023/06/02 03:41:21;;;;;;;;;19.00;17.50;;;;;17.11;52.64;101356.69;2088683;28;45363;-59
2023/06/02 03:42:22;;;;;;;;;21.00;20.00;;;;;17.09;52.12;101355.88;2089097;28;45168;-60
2023/06/02 03:43:22;;;;;;;;;18.75;18.75;;;;;17.06;52.66;101354.19;2088538;28;45536;-60
2023/06/02 03:44:22;;;;;;;;;19.50;17.50;;;;;17.05;52.62;101355.13;2082637;28;49203;-61
2023/06/02 03:45:23;;;;;;;;;18.50;17.75;;;;;17.05;52.82;101352.44;2078964;28;46391;-60
2023/06/02 03:46:23;;;;;;;;;16.75;16.75;;;;;17.03;52.65;101351.63;2080045;28;45579;-61
2023/06/02 03:47:24;;;;;;;;;22.25;21.25;;;;;17.02;52.59;101347.19;2082857;28;45020;-61
2023/06/02 03:48:24;;;;;;;;;20.50;18.75;;;;;17.01;52.82;101352.59;2087860;28;46679;-61
2023/06/02 03:49:29;;;;;;;;;23.00;21.75;;;;;16.99;53.15;101349.97;2087581;28;46587;-60
2023/06/02 03:50:29;;;;;;;;;19.80;18.00;;;;;16.99;52.66;101359.81;2088274;28;46299;-61
2023/06/02 03:51:30;;;;;;;;;17.50;17.50;;;;;16.99;52.50;101354.47;2090433;28;45748;-61
2023/06/02 03:52:30;;;;;;;;;20.25;19.00;;;;;17.00;53.14;101356.22;2092556;28;46028;-61
2023/06/02 03:53:31;;;;;;;;;18.25;17.00;;;;;16.99;52.56;101355.34;2088754;28;46607;-61
2023/06/02 03:54:31;;;;;;;;;19.25;18.25;;;;;16.99;52.68;101360.69;2088397;28;45896;-61
2023/06/02 03:55:31;;;;;;;;;21.75;20.25;;;;;16.99;52.50;101349.97;2088778;28;46494;-62
2023/06/02 03:56:31;;;;;;;;;18.75;18.75;;;;;16.99;53.07;101344.59;2088156;28;45591;-61
2023/06/02 03:57:32;;;;;;;;;23.50;22.00;;;;;17.00;52.79;101358.88;2088144;28;45236;-60
2023/06/02 03:58:32;;;;;;;;;21.25;19.50;;;;;16.99;53.05;101360.69;2088287;28;45934;-61
2023/06/02 03:59:33;;;;;;;;;19.00;16.75;;;;;16.98;52.83;101355.41;2088729;28;45521;-61
2023/06/02 04:00:33;;;;;;;;;15.50;15.00;;;;;16.98;52.85;101358.94;2088236;28;45514;-61
2023/06/02 04:01:35;;;;;;;;;21.75;20.25;;;;;16.97;52.93;101362.56;2087716;28;45088;-61
2023/06/02 04:02:35;;;;;;;;;20.00;19.20;;;;;16.96;52.91;101359.94;2088171;28;45165;-61
2023/06/02 04:03:41;;;;;;;;;19.25;19.25;;;;;16.96;52.75;101357.25;2087412;28;45454;-61
2023/06/02 04:04:42;;;;;;;;;18.00;17.00;;;;;16.96;52.95;101368.88;2088299;28;45760;-59
2023/06/02 04:05:42;;;;;;;;;20.40;20.40;;;;;16.97;52.69;101365.25;2085335;28;46056;-62
2023/06/02 04:06:43;;;;;;;;;24.25;21.00;;;;;16.97;53.00;101364.38;2088511;28;45770;-62
2023/06/02 04:07:43;;;;;;;;;17.25;17.25;;;;;16.97;53.00;101359.00;2088336;28;45467;-61
2023/06/02 04:08:45;;;;;;;;;22.25;21.50;;;;;16.96;52.74;101358.13;2088133;28;46559;-61
2023/06/02 04:09:45;;;;;;;;;23.60;20.40;;;;;16.97;52.60;101364.38;2087906;28;45585;-60
2023/06/02 04:10:45;;;;;;;;;21.75;21.75;;;;;16.96;52.66;101359.94;2088338;28;46650;-60
2023/06/02 04:11:46;;;;;;;;;19.00;19.00;;;;;16.95;52.89;101352.84;2088193;28;46226;-62
2023/06/02 04:12:46;;;;;;;;;21.75;21.00;;;;;16.95;52.93;101361.75;2088327;28;45827;-63
2023/06/02 04:13:46;;;;;;;;;20.50;18.25;;;;;16.96;52.74;101354.59;2087464;28;45923;-63
2023/06/02 04:14:47;;;;;;;;;17.50;17.50;;;;;16.98;52.68;101355.41;2087778;28;45861;-61
2023/06/02 04:15:47;;;;;;;;;19.75;18.50;;;;;16.99;53.16;101359.81;2088379;28;46034;-60
2023/06/02 04:16:47;;;;;;;;;23.25;20.75;;;;;16.99;52.99;101355.34;2087828;28;46624;-63
2023/06/02 04:17:48;;;;;;;;;20.50;19.75;;;;;17.00;52.65;101354.41;2089042;28;45935;-61
2023/06/02 04:18:48;;;;;;;;;20.75;19.50;;;;;16.99;52.91;101358.00;2088581;28;45760;-62
2023/06/02 04:19:48;;;;;;;;;24.00;22.00;;;;;17.00;53.07;101356.22;2088226;28;46282;-61
2023/06/02 04:20:49;;;;;;;;;25.00;22.00;;;;;16.98;52.76;101360.75;2088885;28;45436;-60
2023/06/02 04:21:49;;;;;;;;;22.50;21.50;;;;;16.96;52.79;101351.91;2089117;28;44994;-61
2023/06/02 04:22:50;;;;;;;;;23.50;23.50;;;;;16.96;52.70;101357.25;2088111;28;45384;-60
2023/06/02 04:23:50;;;;;;;;;24.25;21.75;;;;;16.93;53.06;101362.75;2086094;28;46550;-61
2023/06/02 04:24:50;;;;;;;;;22.00;22.00;;;;;16.91;52.54;101357.44;2083787;28;46516;-61
2023/06/02 04:25:51;;;;;;;;;21.75;21.50;;;;;16.91;52.79;101361.94;2086897;28;46424;-59
2023/06/02 04:26:51;;;;;;;;;23.00;20.50;;;;;16.91;52.82;101365.50;2085075;28;45642;-61
2023/06/02 04:27:52;;;;;;;;;22.00;20.75;;;;;16.91;52.79;101361.94;2086946;28;45026;-61
2023/06/02 04:28:52;;;;;;;;;27.50;24.75;;;;;16.91;53.36;101353.91;2087080;28;45569;-62
2023/06/02 04:29:52;;;;;;;;;22.00;20.25;;;;;16.92;53.05;101359.19;2081830;28;46767;-61
2023/06/02 04:30:55;;;;;;;;;22.50;22.25;;;;;16.93;52.74;101350.22;2079398;28;46643;-60
2023/06/02 04:31:55;;;;;;;;;17.00;16.60;;;;;16.95;52.79;101356.38;2088225;28;45648;-62
2023/06/02 04:32:55;;;;;;;;;23.00;20.50;;;;;16.97;52.69;101353.66;2085761;28;46921;-60
2023/06/02 04:33:56;;;;;;;;;23.00;21.75;;;;;16.99;52.77;101358.00;2088203;28;45843;-61
2023/06/02 04:34:56;;;;;;;;;20.00;20.00;;;;;17.00;52.87;101350.84;2087013;28;45925;-60
2023/06/02 04:35:56;;;;;;;;;25.00;23.75;;;;;16.99;52.59;101355.34;2088186;28;46582;-60
2023/06/02 04:36:58;;;;;;;;;22.25;22.25;;;;;16.97;52.78;101350.97;2095922;28;45662;-59
2023/06/02 04:37:58;;;;;;;;;25.20;23.00;;;;;16.97;52.47;101353.66;2095776;28;45146;-60
2023/06/02 04:38:58;;;;;;;;;22.00;21.50;;;;;16.96;52.54;101355.47;2087444;28;46045;-62